Portada
METAR-TAF:

METAR-TAF

Aeroports :

Hagåtña, Guam, Estats Units d'Amèrica

latitud: 13-29N, longitud: 144-48E, altitud: 91 m

Observació

L'informe es va fer fa 1 hora i 8 minuts, a les 06:54 UTC
Vent 12 kt del Est/Nord-Est
Temperatura 29°C
Humitat 70%
Pressió 1011 hPa
Visibilitat: 16.1 km
Escasses núvols a una alçada de 2600 ft

METAR: PGUM 180654Z 06012KT 10SM FEW026 29/23 A2984 RMK AO2 SLP095 T02940228

Hora: 18:02 (08:02 UTC)

Pronòstic

L'informe es va fer fa 2 hores i 38 minuts, a les 05:24 UTC
Pronòstic vàlid del 18 a les 06 UTC al 19 a les 12 UTC
Vent 16 kt del Est/Nord-Est
Visibilitat: 10 km
Núvols disperses a una alçada de 2500 ft
A partir de les 18 a les 0900 UTC
Vent 9 kt del Est/Nord-Est
Visibilitat: 10 km
Núvols disperses a una alçada de 2200 ft

TAF: PGUM 180524Z 1806/1912 07016KT P6SM SCT025 FM180900 07009KT P6SM SCT022

Observacions i pronòstics meteorològics de més de 4000 aeroports (METAR i TAF).

Les estacions disponibles són els punts grocs i vermells al mapa.

Posi el ratolí al punt desitjat per veure el nom de l'estació.

Feu clic per veure les observacions i els pronòstics meteorològics.

Per canviar el mapa: feu clic els botons verds amb una creu de color negre per apropar; al botó verd amb un guió per allunyar la imatge; o en les fletxes verdes per a mapes adjacents.


METAR-TAF: